Time;durP1;ratioP1;P1;durP2;ratioP2;P2;SDS_P1;SDS_P2;PMS_P1;PMS_P2;Temp;Humidity;BMP_temperature;BMP_pressure;BME280_temperature;BME280_humidity;BME280_pressure;Samples;Min_cycle;Max_cycle;Signal;HPM_P1;HPM_P2
2023/06/15 00:01:13;;;;;;;0.38;0.38;;;18.70;99.90;;;;;;5026088;28;20046;-66
2023/06/15 00:03:41;;;;;;;0.32;0.15;;;18.70;99.90;;;;;;5013961;28;20401;-66
2023/06/15 00:06:07;;;;;;;0.10;0.10;;;18.70;99.90;;;;;;5028412;28;20045;-66
2023/06/15 00:08:34;;;;;;;0.10;0.10;;;18.60;99.90;;;;;;5004636;28;20058;-66
2023/06/15 00:11:00;;;;;;;0.10;0.10;;;18.60;99.90;;;;;;5013964;28;20092;-66
2023/06/15 00:13:26;;;;;;;0.65;0.52;;;18.70;99.90;;;;;;5009499;28;20081;-66
2023/06/15 00:15:51;;;;;;;1.35;0.85;;;18.60;99.90;;;;;;5012972;28;20120;-66
2023/06/15 00:18:17;;;;;;;0.15;0.10;;;18.70;99.90;;;;;;5013756;28;20049;-66
2023/06/15 00:20:44;;;;;;;0.00;0.00;;;18.60;99.90;;;;;;5011287;28;20045;-66
2023/06/15 00:23:10;;;;;;;0.32;0.32;;;18.50;99.90;;;;;;5004711;28;20039;-66
2023/06/15 00:25:36;;;;;;;0.20;0.20;;;18.50;99.90;;;;;;5028783;28;20053;-66
2023/06/15 00:28:02;;;;;;;0.00;0.00;;;18.50;99.90;;;;;;5010830;28;20072;-66
2023/06/15 00:30:28;;;;;;;0.00;0.00;;;18.50;99.90;;;;;;5010404;28;20049;-66
2023/06/15 00:32:53;;;;;;;0.68;0.20;;;18.40;99.90;;;;;;5013411;28;20053;-66
2023/06/15 00:35:19;;;;;;;1.70;0.73;;;18.40;99.90;;;;;;5012576;28;20072;-66
2023/06/15 00:37:45;;;;;;;0.57;0.43;;;18.40;99.90;;;;;;5004742;28;20046;-66
2023/06/15 00:40:11;;;;;;;0.20;0.20;;;18.40;99.90;;;;;;5009339;28;20046;-66
2023/06/15 00:42:37;;;;;;;0.00;0.00;;;18.40;99.90;;;;;;5012620;28;20046;-66
2023/06/15 00:45:04;;;;;;;0.20;0.10;;;18.40;99.90;;;;;;5021755;28;20523;-66
2023/06/15 00:47:30;;;;;;;0.00;0.00;;;18.40;99.90;;;;;;5006438;28;20046;-66
2023/06/15 00:49:57;;;;;;;4.63;1.40;;;18.30;99.90;;;;;;5012384;28;20046;-66
2023/06/15 00:52:23;;;;;;;0.65;0.22;;;18.40;99.90;;;;;;5011035;28;20541;-66
2023/06/15 00:54:50;;;;;;;0.03;0.03;;;18.30;99.90;;;;;;5011056;28;20117;-66
2023/06/15 00:57:17;;;;;;;0.08;0.08;;;18.20;99.90;;;;;;5013477;28;20068;-66
2023/06/15 00:59:42;;;;;;;0.20;0.20;;;18.30;99.90;;;;;;5013277;28;20045;-66
2023/06/15 01:02:12;;;;;;;0.08;0.08;;;18.30;99.90;;;;;;5005583;28;20053;-66
2023/06/15 01:04:39;;;;;;;0.00;0.00;;;18.30;99.90;;;;;;5007529;28;20100;-66
2023/06/15 01:07:10;;;;;;;0.10;0.10;;;18.30;99.90;;;;;;5007273;28;20046;-66
2023/06/15 01:09:39;;;;;;;0.75;0.73;;;18.30;99.90;;;;;;5008957;28;20417;-66
2023/06/15 01:12:07;;;;;;;0.63;0.63;;;18.30;99.90;;;;;;5003326;28;20046;-66
2023/06/15 01:14:33;;;;;;;1.75;1.65;;;18.20;99.90;;;;;;5012775;28;20037;-66
2023/06/15 01:17:09;;;;;;;1.15;0.63;;;18.20;99.90;;;;;;5001482;28;20133;-66
2023/06/15 01:19:53;;;;;;;0.15;0.15;;;18.20;99.90;;;;;;5008151;28;20107;-66
2023/06/15 01:22:24;;;;;;;0.03;0.03;;;18.20;99.90;;;;;;5003857;28;20033;-66
2023/06/15 01:25:02;;;;;;;0.10;0.10;;;18.00;99.90;;;;;;5003657;28;20060;-66
2023/06/15 01:27:28;;;;;;;0.00;0.00;;;18.10;99.90;;;;;;5015144;28;20085;-66
2023/06/15 01:29:54;;;;;;;0.00;0.00;;;18.10;99.90;;;;;;5008265;28;20065;-66
2023/06/15 01:32:20;;;;;;;0.03;0.03;;;18.00;99.90;;;;;;5001080;28;20046;-66
2023/06/15 01:34:46;;;;;;;0.15;0.15;;;18.00;99.90;;;;;;5006830;28;20077;-66
2023/06/15 01:37:11;;;;;;;0.00;0.00;;;18.00;99.90;;;;;;5003474;28;20085;-66
2023/06/15 01:39:39;;;;;;;0.00;0.00;;;18.00;99.90;;;;;;5006250;28;20065;-66
2023/06/15 01:42:06;;;;;;;0.08;0.08;;;17.90;99.90;;;;;;5012655;28;20103;-66
2023/06/15 01:44:32;;;;;;;0.10;0.10;;;17.90;99.90;;;;;;5007624;28;20045;-66
2023/06/15 01:46:58;;;;;;;0.00;0.00;;;17.90;99.90;;;;;;5011390;28;20049;-66
2023/06/15 01:49:24;;;;;;;0.55;0.30;;;17.90;99.90;;;;;;5009871;28;20045;-66
2023/06/15 01:51:50;;;;;;;0.20;0.20;;;17.90;99.90;;;;;;4999693;28;20409;-66
2023/06/15 01:54:15;;;;;;;0.17;0.17;;;17.80;99.90;;;;;;5010228;28;20050;-66
2023/06/15 01:56:42;;;;;;;0.43;0.43;;;17.80;99.90;;;;;;5000330;28;20145;-66
2023/06/15 01:59:07;;;;;;;0.30;0.30;;;17.80;99.90;;;;;;5011697;28;20046;-66
2023/06/15 02:01:33;;;;;;;0.45;0.43;;;17.80;99.90;;;;;;5009257;28;20180;-66
2023/06/15 02:03:58;;;;;;;0.10;0.10;;;17.70;99.90;;;;;;5008980;28;20148;-66
2023/06/15 02:06:24;;;;;;;0.00;0.00;;;17.70;99.90;;;;;;5011346;28;20041;-66
2023/06/15 02:08:50;;;;;;;0.28;0.28;;;17.70;99.90;;;;;;5012275;28;20050;-66
2023/06/15 02:11:18;;;;;;;0.45;0.15;;;17.60;99.90;;;;;;5010516;28;20045;-66
2023/06/15 02:13:44;;;;;;;0.00;0.00;;;17.60;99.90;;;;;;4999411;28;20054;-66
2023/06/15 02:16:11;;;;;;;0.20;0.20;;;17.60;99.90;;;;;;5010541;28;20053;-66
2023/06/15 02:18:37;;;;;;;0.00;0.00;;;17.50;99.90;;;;;;4997384;28;20046;-66
2023/06/15 02:21:03;;;;;;;0.90;0.43;;;17.50;99.90;;;;;;5005576;28;20088;-66
2023/06/15 02:23:28;;;;;;;0.00;0.00;;;17.50;99.90;;;;;;5006194;28;20037;-66
2023/06/15 02:25:54;;;;;;;0.45;0.30;;;17.50;99.90;;;;;;5003067;28;20055;-66
2023/06/15 02:28:19;;;;;;;0.00;0.00;;;17.50;99.90;;;;;;5009257;28;20044;-66
2023/06/15 02:30:45;;;;;;;0.38;0.38;;;17.50;99.90;;;;;;5013390;28;20211;-66
2023/06/15 02:33:11;;;;;;;0.00;0.00;;;17.50;99.90;;;;;;5004681;28;20050;-66
2023/06/15 02:35:36;;;;;;;0.20;0.20;;;17.50;99.90;;;;;;5015540;28;20050;-66
2023/06/15 02:38:02;;;;;;;0.20;0.20;;;17.50;99.90;;;;;;5016007;28;20048;-66
2023/06/15 02:40:27;;;;;;;25.40;1.10;;;17.40;99.90;;;;;;5005606;28;20081;-66
2023/06/15 02:42:53;;;;;;;0.43;0.43;;;17.50;99.90;;;;;;5011293;28;20038;-66
2023/06/15 02:45:19;;;;;;;0.08;0.08;;;17.40;99.90;;;;;;5015435;28;20085;-66
2023/06/15 02:47:44;;;;;;;0.00;0.00;;;17.40;99.90;;;;;;5005359;28;20045;-66
2023/06/15 02:50:10;;;;;;;0.80;0.63;;;17.40;99.90;;;;;;5012071;28;20041;-66
2023/06/15 02:52:37;;;;;;;0.13;0.13;;;17.40;99.90;;;;;;5015459;28;20799;-66
2023/06/15 02:55:02;;;;;;;0.00;0.00;;;17.40;99.90;;;;;;5012037;28;20486;-66
2023/06/15 02:57:28;;;;;;;0.00;0.00;;;17.30;99.90;;;;;;5007385;28;20049;-66
2023/06/15 02:59:54;;;;;;;0.08;0.08;;;17.30;99.90;;;;;;5015936;28;20037;-66
2023/06/15 03:02:23;;;;;;;1.08;0.65;;;17.40;99.90;;;;;;5015080;28;20049;-66
2023/06/15 03:04:51;;;;;;;1.00;0.08;;;17.30;99.90;;;;;;5013499;28;20521;-66
2023/06/15 03:07:20;;;;;;;0.20;0.20;;;17.30;99.90;;;;;;5006513;28;20038;-66
2023/06/15 03:09:50;;;;;;;0.13;0.13;;;17.30;99.90;;;;;;5014650;28;20050;-66
2023/06/15 03:12:17;;;;;;;0.40;0.40;;;17.30;99.90;;;;;;5015280;28;20045;-66
2023/06/15 03:14:44;;;;;;;0.30;0.30;;;17.30;99.90;;;;;;5025599;28;20045;-66
2023/06/15 03:17:13;;;;;;;0.73;0.73;;;17.20;99.90;;;;;;5014786;28;20038;-66
2023/06/15 03:19:40;;;;;;;0.10;0.10;;;17.20;99.90;;;;;;5007538;28;20046;-66
2023/06/15 03:22:07;;;;;;;0.00;0.00;;;17.20;99.90;;;;;;5009516;28;20034;-66
2023/06/15 03:24:33;;;;;;;0.50;0.50;;;17.30;99.90;;;;;;5007452;28;20072;-66
2023/06/15 03:27:02;;;;;;;0.90;0.57;;;17.20;99.90;;;;;;5009782;28;20421;-66
2023/06/15 03:29:29;;;;;;;9.88;1.23;;;17.20;99.90;;;;;;5012212;28;20144;-66
2023/06/15 03:31:55;;;;;;;0.20;0.20;;;17.20;99.90;;;;;;5000882;28;20046;-66
2023/06/15 03:34:21;;;;;;;1.77;0.90;;;17.20;99.90;;;;;;5014232;28;20042;-66
2023/06/15 03:36:51;;;;;;;0.30;0.30;;;17.20;99.90;;;;;;5013982;28;20044;-66
2023/06/15 03:39:18;;;;;;;0.00;0.00;;;17.20;99.90;;;;;;5010469;28;20046;-66
2023/06/15 03:41:43;;;;;;;0.13;0.13;;;17.10;99.90;;;;;;4999788;28;20064;-66
2023/06/15 03:44:09;;;;;;;0.40;0.40;;;17.20;99.90;;;;;;5012049;28;20042;-66
2023/06/15 03:46:35;;;;;;;3.85;0.25;;;17.20;99.90;;;;;;5004536;28;20048;-66
2023/06/15 03:49:00;;;;;;;0.30;0.30;;;17.20;99.90;;;;;;5014681;28;20053;-66
2023/06/15 03:51:27;;;;;;;0.10;0.10;;;17.20;99.90;;;;;;5013571;28;20038;-66
2023/06/15 03:53:52;;;;;;;0.00;0.00;;;17.10;99.90;;;;;;5006171;28;20046;-66
2023/06/15 03:56:18;;;;;;;0.57;0.57;;;17.10;99.90;;;;;;5013764;28;20395;-66
2023/06/15 03:58:43;;;;;;;0.00;0.00;;;17.20;99.90;;;;;;5011975;28;20057;-66
2023/06/15 04:01:12;;;;;;;0.03;0.03;;;17.20;99.90;;;;;;5001564;28;20046;-66
2023/06/15 04:03:39;;;;;;;0.20;0.20;;;17.20;99.90;;;;;;5012715;28;20045;-66
2023/06/15 04:06:05;;;;;;;0.10;0.10;;;17.20;99.90;;;;;;5013702;28;20049;-66
2023/06/15 04:08:37;;;;;;;0.30;0.30;;;17.20;99.90;;;;;;5006415;28;20102;-66
2023/06/15 04:11:03;;;;;;;0.45;0.32;;;17.20;99.90;;;;;;5006443;28;20053;-66
2023/06/15 04:13:29;;;;;;;0.00;0.00;;;17.30;99.90;;;;;;5013308;28;20033;-65
2023/06/15 04:15:55;;;;;;;0.10;0.10;;;17.30;99.90;;;;;;5010608;28;20046;-66
2023/06/15 04:18:21;;;;;;;0.90;0.20;;;17.30;99.90;;;;;;5003612;28;20046;-66
2023/06/15 04:20:46;;;;;;;6.35;2.28;;;17.30;99.90;;;;;;5013170;28;20103;-66
2023/06/15 04:23:12;;;;;;;0.20;0.20;;;17.30;99.90;;;;;;5013492;28;20489;-66
2023/06/15 04:25:40;;;;;;;0.17;0.17;;;17.40;99.90;;;;;;5009684;28;20041;-66
2023/06/15 04:28:10;;;;;;;0.32;0.32;;;17.40;99.90;;;;;;5011947;28;20409;-66
2023/06/15 04:30:40;;;;;;;0.00;0.00;;;17.40;99.90;;;;;;5013345;28;20053;-66
2023/06/15 04:33:12;;;;;;;1.73;1.27;;;17.40;99.90;;;;;;5009677;28;20062;-66
2023/06/15 04:35:40;;;;;;;0.47;0.47;;;17.40;99.90;;;;;;5002639;28;20061;-66
2023/06/15 04:38:06;;;;;;;0.10;0.10;;;17.40;99.90;;;;;;5013600;28;20093;-66
2023/06/15 04:40:31;;;;;;;0.32;0.32;;;17.50;99.90;;;;;;5004367;28;20038;-66
2023/06/15 04:43:02;;;;;;;0.10;0.10;;;17.50;99.90;;;;;;5009673;28;20042;-66
2023/06/15 04:45:29;;;;;;;0.13;0.13;;;17.60;99.90;;;;;;4999775;28;20053;-66
2023/06/15 04:47:54;;;;;;;0.43;0.43;;;17.60;99.90;;;;;;5004887;28;20042;-66
2023/06/15 04:50:21;;;;;;;0.08;0.08;;;17.60;99.90;;;;;;5007282;28;20100;-66
2023/06/15 04:52:48;;;;;;;0.50;0.50;;;17.60;99.90;;;;;;5012301;28;20042;-66
2023/06/15 04:55:13;;;;;;;0.00;0.00;;;17.60;99.90;;;;;;5010278;28;20052;-66
2023/06/15 04:57:39;;;;;;;3.85;1.77;;;17.70;99.90;;;;;;5002825;28;20038;-66
2023/06/15 05:00:10;;;;;;;0.00;0.00;;;17.70;99.90;;;;;;5013287;28;20124;-66
2023/06/15 05:02:35;;;;;;;0.43;0.43;;;17.70;99.90;;;;;;5012160;28;20042;-66
2023/06/15 05:05:01;;;;;;;0.08;0.08;;;17.80;99.90;;;;;;5005528;28;20061;-66
2023/06/15 05:07:27;;;;;;;0.10;0.10;;;17.80;99.90;;;;;;5006875;28;20073;-66
2023/06/15 05:09:52;;;;;;;0.00;0.00;;;17.80;99.90;;;;;;5002570;28;20052;-66
2023/06/15 05:12:18;;;;;;;0.20;0.20;;;17.90;99.90;;;;;;5012913;28;20037;-66
2023/06/15 05:14:44;;;;;;;0.20;0.20;;;17.90;99.90;;;;;;5012691;28;20045;-66
2023/06/15 05:17:09;;;;;;;0.30;0.30;;;17.90;99.90;;;;;;5007678;28;20049;-66
2023/06/15 05:19:35;;;;;;;0.13;0.13;;;18.00;99.90;;;;;;5011932;28;20070;-66
2023/06/15 05:22:01;;;;;;;0.20;0.20;;;18.10;99.90;;;;;;5012012;28;20489;-66
2023/06/15 05:24:27;;;;;;;0.30;0.30;;;18.10;99.90;;;;;;5010915;28;20053;-66
2023/06/15 05:26:53;;;;;;;33.22;3.33;;;18.20;99.90;;;;;;5001183;28;20402;-66
2023/06/15 05:29:20;;;;;;;0.20;0.20;;;18.20;99.90;;;;;;5011614;28;20430;-66
2023/06/15 05:31:46;;;;;;;0.15;0.15;;;18.30;99.90;;;;;;5004220;28;20572;-66
2023/06/15 05:34:11;;;;;;;1.10;1.05;;;18.40;99.90;;;;;;5008612;28;20042;-66
2023/06/15 05:36:37;;;;;;;0.20;0.20;;;18.40;99.90;;;;;;5012338;28;20168;-66
2023/06/15 05:39:03;;;;;;;0.00;0.00;;;18.50;99.90;;;;;;5000830;28;20470;-66
2023/06/15 05:41:29;;;;;;;0.30;0.30;;;18.50;99.90;;;;;;5007606;28;20428;-66
2023/06/15 05:43:55;;;;;;;0.80;0.80;;;18.50;99.90;;;;;;5008355;28;20056;-66
2023/06/15 05:46:21;;;;;;;0.25;0.25;;;18.60;99.90;;;;;;5002777;28;20053;-66
2023/06/15 05:48:47;;;;;;;0.00;0.00;;;18.60;99.90;;;;;;5012778;28;20038;-65
2023/06/15 05:51:12;;;;;;;0.00;0.00;;;18.60;99.90;;;;;;5011962;28;20049;-66
2023/06/15 05:53:38;;;;;;;0.15;0.15;;;18.60;99.90;;;;;;5015176;28;20137;-66
2023/06/15 05:56:04;;;;;;;0.10;0.10;;;18.60;99.90;;;;;;5005928;28;20057;-66
2023/06/15 05:58:29;;;;;;;0.00;0.00;;;18.70;99.90;;;;;;5000218;28;20045;-66
2023/06/15 06:00:55;;;;;;;0.85;0.75;;;18.80;99.90;;;;;;5026234;28;20060;-66
2023/06/15 06:03:21;;;;;;;0.10;0.10;;;18.90;99.90;;;;;;5012324;28;20486;-66
2023/06/15 06:05:47;;;;;;;0.57;0.57;;;18.90;99.90;;;;;;5002441;28;20050;-66
2023/06/15 06:08:12;;;;;;;0.10;0.10;;;18.90;99.90;;;;;;5010131;28;20044;-66
2023/06/15 06:10:38;;;;;;;0.10;0.10;;;18.90;99.90;;;;;;5007059;28;20493;-66
2023/06/15 06:13:03;;;;;;;0.00;0.00;;;19.00;99.90;;;;;;5010072;28;20108;-66
2023/06/15 06:15:29;;;;;;;0.00;0.00;;;19.10;99.90;;;;;;5012193;28;20122;-66
2023/06/15 06:17:55;;;;;;;0.63;0.60;;;19.10;99.90;;;;;;5008025;28;20041;-66
2023/06/15 06:20:20;;;;;;;0.00;0.00;;;19.20;99.90;;;;;;4994818;28;20056;-66
2023/06/15 06:22:46;;;;;;;0.00;0.00;;;19.30;99.90;;;;;;5002055;28;20120;-66
2023/06/15 06:25:12;;;;;;;0.10;0.10;;;19.30;99.90;;;;;;5008026;28;20046;-66
2023/06/15 06:27:37;;;;;;;0.10;0.10;;;19.40;99.90;;;;;;5010973;28;20042;-66
2023/06/15 06:30:04;;;;;;;0.10;0.10;;;19.50;99.90;;;;;;5010102;28;20172;-66
2023/06/15 06:32:29;;;;;;;0.10;0.10;;;19.60;99.90;;;;;;5004669;28;20038;-66
2023/06/15 06:34:55;;;;;;;0.00;0.00;;;19.70;99.90;;;;;;5000423;28;20042;-66
2023/06/15 06:37:21;;;;;;;0.45;0.45;;;19.70;99.90;;;;;;5009842;28;20038;-66
2023/06/15 06:39:47;;;;;;;0.00;0.00;;;19.70;99.90;;;;;;4999191;28;20042;-66
2023/06/15 06:42:12;;;;;;;0.00;0.00;;;19.90;99.90;;;;;;5009639;28;20096;-66
2023/06/15 06:44:38;;;;;;;0.17;0.17;;;19.90;99.90;;;;;;5009759;28;20049;-66
2023/06/15 06:47:04;;;;;;;0.10;0.10;;;20.00;99.90;;;;;;5000130;28;20117;-66
2023/06/15 06:49:30;;;;;;;0.05;0.05;;;20.00;99.90;;;;;;5010845;28;20049;-66
2023/06/15 06:51:55;;;;;;;0.00;0.00;;;20.20;99.90;;;;;;5011817;28;20385;-66
2023/06/15 06:54:21;;;;;;;0.00;0.00;;;20.20;99.90;;;;;;5004667;28;20076;-66
2023/06/15 06:56:47;;;;;;;0.30;0.30;;;20.20;99.90;;;;;;5007227;28;20037;-66
2023/06/15 06:59:12;;;;;;;0.00;0.00;;;20.30;99.90;;;;;;5011679;28;20049;-66
2023/06/15 07:01:38;;;;;;;0.00;0.00;;;20.40;99.90;;;;;;5004606;28;20038;-66
2023/06/15 07:04:04;;;;;;;0.00;0.00;;;20.40;99.90;;;;;;5007673;28;20073;-66
2023/06/15 07:06:30;;;;;;;0.20;0.20;;;20.50;99.90;;;;;;5011458;28;20046;-66
2023/06/15 07:08:55;;;;;;;0.00;0.00;;;20.60;99.90;;;;;;5010710;28;20056;-66
2023/06/15 07:11:26;;;;;;;0.17;0.17;;;20.60;99.90;;;;;;5002455;28;20097;-66
2023/06/15 07:13:52;;;;;;;0.00;0.00;;;20.70;99.90;;;;;;5003367;28;20054;-66
2023/06/15 07:16:17;;;;;;;0.00;0.00;;;20.80;99.90;;;;;;5013166;28;20041;-66
2023/06/15 07:18:43;;;;;;;1.80;0.32;;;20.90;99.90;;;;;;5015058;28;20034;-66
2023/06/15 07:21:09;;;;;;;0.38;0.28;;;21.00;99.90;;;;;;5002662;28;20658;-66
2023/06/15 07:23:34;;;;;;;0.17;0.17;;;21.00;99.90;;;;;;5007641;28;20436;-66
2023/06/15 07:26:00;;;;;;;0.10;0.10;;;21.10;99.90;;;;;;5004555;28;20038;-66
2023/06/15 07:28:26;;;;;;;0.00;0.00;;;21.10;99.90;;;;;;5007823;28;20046;-66
2023/06/15 07:30:51;;;;;;;0.00;0.00;;;21.20;99.90;;;;;;5006679;28;20052;-66
2023/06/15 07:33:18;;;;;;;0.00;0.00;;;21.30;99.10;;;;;;5014901;28;20065;-66
2023/06/15 07:35:44;;;;;;;0.10;0.10;;;21.30;99.40;;;;;;5005977;28;20053;-66
2023/06/15 07:38:09;;;;;;;0.20;0.20;;;21.40;99.30;;;;;;5011560;28;20041;-66
2023/06/15 07:40:35;;;;;;;0.00;0.00;;;21.40;98.80;;;;;;5010698;28;20480;-66
2023/06/15 07:43:01;;;;;;;0.00;0.00;;;21.50;98.90;;;;;;5004647;28;20126;-66
2023/06/15 07:45:27;;;;;;;0.52;0.52;;;21.60;99.80;;;;;;5014412;28;20088;-66
2023/06/15 07:47:53;;;;;;;0.20;0.17;;;21.60;99.30;;;;;;5013490;28;20432;-67
2023/06/15 07:50:18;;;;;;;0.00;0.00;;;21.70;99.70;;;;;;5011741;28;20049;-66
2023/06/15 07:52:44;;;;;;;0.00;0.00;;;21.80;99.20;;;;;;5012807;28;20065;-66
2023/06/15 07:55:10;;;;;;;0.00;0.00;;;21.80;99.40;;;;;;5014346;28;20505;-66
2023/06/15 07:57:35;;;;;;;0.00;0.00;;;22.00;99.20;;;;;;5011367;28;20087;-66
2023/06/15 08:00:06;;;;;;;0.00;0.00;;;22.00;98.60;;;;;;5004049;28;20101;-66
2023/06/15 08:02:31;;;;;;;2.28;1.10;;;22.00;97.90;;;;;;5012005;28;20065;-66
2023/06/15 08:04:57;;;;;;;0.15;0.10;;;22.10;97.80;;;;;;5002227;28;20092;-66
2023/06/15 08:07:23;;;;;;;0.30;0.30;;;22.10;97.40;;;;;;5014375;28;20041;-66
2023/06/15 08:09:48;;;;;;;0.55;0.17;;;22.10;96.40;;;;;;5011807;28;20077;-66
2023/06/15 08:12:14;;;;;;;0.73;0.25;;;22.20;96.70;;;;;;5008173;28;20046;-66
2023/06/15 08:14:40;;;;;;;0.00;0.00;;;22.20;96.10;;;;;;5010189;28;20046;-66
2023/06/15 08:17:05;;;;;;;0.00;0.00;;;22.30;96.70;;;;;;5014135;28;20274;-66
2023/06/15 08:19:31;;;;;;;0.65;0.65;;;22.30;96.60;;;;;;5005125;28;20196;-66
2023/06/15 08:21:56;;;;;;;0.00;0.00;;;22.50;96.80;;;;;;5004686;28;20046;-66
2023/06/15 08:24:22;;;;;;;0.00;0.00;;;22.50;96.30;;;;;;5013896;28;20038;-66
2023/06/15 08:26:51;;;;;;;0.00;0.00;;;22.50;96.20;;;;;;5012935;28;20037;-66
2023/06/15 08:29:18;;;;;;;0.00;0.00;;;22.50;96.30;;;;;;5002208;28;20165;-66
2023/06/15 08:31:43;;;;;;;0.00;0.00;;;22.60;96.70;;;;;;5008956;28;20504;-66
2023/06/15 08:34:09;;;;;;;0.00;0.00;;;22.60;96.00;;;;;;5012853;28;20042;-66
2023/06/15 08:36:35;;;;;;;0.00;0.00;;;22.70;96.50;;;;;;5002602;28;20092;-67
2023/06/15 08:39:01;;;;;;;0.00;0.00;;;22.80;96.90;;;;;;5041461;28;20048;-66
2023/06/15 08:41:27;;;;;;;0.00;0.00;;;22.80;96.60;;;;;;5011999;28;20129;-66
2023/06/15 08:43:53;;;;;;;0.00;0.00;;;22.80;97.00;;;;;;5006950;28;20054;-66
2023/06/15 08:46:21;;;;;;;0.00;0.00;;;22.80;96.50;;;;;;5005454;28;20768;-66
2023/06/15 08:48:48;;;;;;;0.00;0.00;;;22.90;96.30;;;;;;5005764;28;20050;-67
2023/06/15 08:51:15;;;;;;;0.00;0.00;;;22.90;96.20;;;;;;5007344;28;20077;-66
2023/06/15 08:53:43;;;;;;;0.00;0.00;;;23.00;96.00;;;;;;5010703;28;20141;-66
2023/06/15 08:56:13;;;;;;;0.00;0.00;;;23.00;95.80;;;;;;5031316;28;20064;-66
2023/06/15 08:58:40;;;;;;;0.00;0.00;;;23.00;96.90;;;;;;5003528;28;20540;-66
2023/06/15 09:01:10;;;;;;;0.00;0.00;;;23.10;95.90;;;;;;5010377;28;20046;-66
2023/06/15 09:03:36;;;;;;;0.00;0.00;;;23.20;95.20;;;;;;5013138;28;20046;-66
2023/06/15 09:06:02;;;;;;;0.35;0.10;;;23.30;95.00;;;;;;5012649;28;20049;-66
2023/06/15 09:08:28;;;;;;;0.00;0.00;;;23.30;94.50;;;;;;5004931;28;20482;-66
2023/06/15 09:11:08;;;;;;;0.00;0.00;;;23.30;95.60;;;;;;5007750;28;20041;-66
2023/06/15 09:13:34;;;;;;;0.00;0.00;;;23.50;95.20;;;;;;5000115;28;20307;-66
2023/06/15 09:16:01;;;;;;;0.00;0.00;;;23.50;95.10;;;;;;5004398;28;20596;-66
2023/06/15 09:18:27;;;;;;;1.55;0.30;;;23.40;95.00;;;;;;5005288;28;20045;-66
2023/06/15 09:21:01;;;;;;;0.00;0.00;;;23.50;94.10;;;;;;5012339;28;20074;-66
2023/06/15 09:23:26;;;;;;;;;;;23.50;93.20;;;;;;5010535;28;20052;-66
2023/06/15 09:25:54;;;;;;;0.00;0.00;;;23.50;93.90;;;;;;5002860;28;19921;-66
2023/06/15 09:28:27;;;;;;;0.00;0.00;;;23.60;93.70;;;;;;5011849;28;20607;-66
2023/06/15 09:30:55;;;;;;;;;;;23.70;93.50;;;;;;5001022;28;20090;-66
2023/06/15 09:33:22;;;;;;;0.10;0.10;;;23.80;94.70;;;;;;5004906;28;19921;-66
2023/06/15 09:36:04;;;;;;;0.00;0.00;;;23.90;94.40;;;;;;5011875;28;20077;-66
2023/06/15 09:38:41;;;;;;;0.00;0.00;;;23.90;92.70;;;;;;5002734;28;20438;-66
2023/06/15 09:41:08;;;;;;;0.00;0.00;;;23.90;93.80;;;;;;5004056;28;20128;-67
2023/06/15 09:43:35;;;;;;;0.00;0.00;;;24.10;93.40;;;;;;5003141;28;20056;-66
2023/06/15 09:46:20;;;;;;;0.00;0.00;;;24.30;93.40;;;;;;5007965;28;20072;-66
2023/06/15 09:48:47;;;;;;;0.00;0.00;;;24.70;93.20;;;;;;5002985;28;20774;-66
2023/06/15 09:51:13;;;;;;;0.20;0.20;;;25.10;92.80;;;;;;4999093;28;20597;-67
2023/06/15 09:53:42;;;;;;;1.55;0.35;;;25.40;93.00;;;;;;5012032;28;20100;-67
2023/06/15 09:56:09;;;;;;;0.00;0.00;;;25.60;92.60;;;;;;5012032;28;20050;-66
2023/06/15 09:58:35;;;;;;;0.00;0.00;;;25.80;90.80;;;;;;5007811;28;20056;-67
2023/06/15 10:01:07;;;;;;;0.00;0.00;;;26.10;92.00;;;;;;4997955;28;20041;-67
2023/06/15 10:03:33;;;;;;;0.00;0.00;;;26.20;92.20;;;;;;5026458;28;20056;-66
2023/06/15 10:06:12;;;;;;;0.03;0.03;;;26.10;91.30;;;;;;5012071;28;20045;-67
2023/06/15 10:08:40;;;;;;;0.00;0.00;;;26.00;91.80;;;;;;5006490;28;20401;-66
2023/06/15 10:11:06;;;;;;;0.10;0.05;;;26.20;91.90;;;;;;5011274;28;20037;-67
2023/06/15 10:13:52;;;;;;;0.28;0.28;;;26.40;90.80;;;;;;5010727;28;20076;-67
2023/06/15 10:16:20;;;;;;;0.00;0.00;;;26.60;91.60;;;;;;5043043;28;20485;-67
2023/06/15 10:18:52;;;;;;;0.00;0.00;;;26.60;91.30;;;;;;5011093;28;20493;-67
2023/06/15 10:21:23;;;;;;;0.00;0.00;;;26.70;91.00;;;;;;5008689;28;20042;-66
2023/06/15 10:23:53;;;;;;;0.00;0.00;;;26.80;91.60;;;;;;5003569;28;20062;-67
2023/06/15 10:26:19;;;;;;;0.10;0.03;;;26.80;90.70;;;;;;5011188;28;20451;-67
2023/06/15 10:28:59;;;;;;;0.30;0.20;;;26.90;90.90;;;;;;5027068;28;20069;-67
2023/06/15 10:31:32;;;;;;;6.55;0.20;;;27.00;91.80;;;;;;5004859;28;20196;-67
2023/06/15 10:34:09;;;;;;;0.70;0.65;;;27.10;90.80;;;;;;5009508;28;20056;-67
2023/06/15 10:37:00;;;;;;;0.03;0.03;;;27.20;91.30;;;;;;5005674;28;20109;-66
2023/06/15 10:39:35;;;;;;;0.22;0.22;;;27.20;90.70;;;;;;5009091;28;20292;-67
2023/06/15 10:42:07;;;;;;;0.13;0.13;;;27.40;91.30;;;;;;5010248;28;20056;-67
2023/06/15 10:44:33;;;;;;;0.38;0.30;;;27.50;89.80;;;;;;5000120;28;20046;-67
2023/06/15 10:47:13;;;;;;;1.08;0.60;;;27.50;91.60;;;;;;5009837;28;20100;-67
2023/06/15 10:49:58;;;;;;;0.00;0.00;;;27.30;90.00;;;;;;5003016;28;20432;-67
2023/06/15 10:52:33;;;;;;;0.00;0.00;;;27.00;88.90;;;;;;5010406;28;20498;-66
2023/06/15 10:55:00;;;;;;;0.03;0.03;;;26.80;90.50;;;;;;5010377;28;20052;-67
2023/06/15 10:57:28;;;;;;;0.20;0.20;;;26.60;90.40;;;;;;5013075;28;20053;-67
2023/06/15 10:59:56;;;;;;;0.03;0.03;;;26.60;88.80;;;;;;5005187;28;20053;-66
2023/06/15 11:02:27;;;;;;;0.00;0.00;;;26.80;87.40;;;;;;5011871;28;20104;-67
2023/06/15 11:05:09;;;;;;;0.00;0.00;;;26.40;84.80;;;;;;5007717;28;20113;-67
2023/06/15 11:07:36;;;;;;;0.00;0.00;;;26.30;87.10;;;;;;5013199;28;20136;-67
2023/06/15 11:10:27;;;;;;;0.10;0.03;;;26.10;86.30;;;;;;5013410;28;20085;-67
2023/06/15 11:13:01;;;;;;;0.00;0.00;;;25.90;86.40;;;;;;5003836;28;21243;-66
2023/06/15 11:15:35;;;;;;;0.63;0.20;;;26.30;86.80;;;;;;5029245;28;20057;-67
2023/06/15 11:18:11;;;;;;;0.00;0.00;;;26.50;86.70;;;;;;5003657;28;20038;-67
2023/06/15 11:20:42;;;;;;;0.05;0.05;;;26.90;87.10;;;;;;5010994;28;20069;-67
2023/06/15 11:23:23;;;;;;;0.00;0.00;;;27.20;84.00;;;;;;5003759;28;20061;-66
2023/06/15 11:25:51;;;;;;;0.00;0.00;;;27.50;85.50;;;;;;5011111;28;20057;-67
2023/06/15 11:28:21;;;;;;;0.00;0.00;;;27.80;83.80;;;;;;5014288;28;20060;-67
2023/06/15 11:30:48;;;;;;;0.13;0.13;;;27.70;81.40;;;;;;5013139;28;20056;-67
2023/06/15 11:33:14;;;;;;;0.00;0.00;;;27.90;85.60;;;;;;5005606;28;20042;-67
2023/06/15 11:35:41;;;;;;;0.00;0.00;;;28.10;85.60;;;;;;5012926;28;20107;-67
2023/06/15 11:38:07;;;;;;;7.32;0.50;;;28.50;84.10;;;;;;5005110;28;20082;-67
2023/06/15 11:40:34;;;;;;;0.98;0.73;;;28.70;82.60;;;;;;5022079;28;20042;-67
2023/06/15 11:43:02;;;;;;;0.00;0.00;;;28.80;80.90;;;;;;5007722;28;20482;-67
2023/06/15 11:45:28;;;;;;;0.00;0.00;;;28.60;79.50;;;;;;5014627;28;20042;-67
2023/06/15 11:47:54;;;;;;;0.05;0.05;;;28.70;82.10;;;;;;5012148;28;20543;-67
2023/06/15 11:50:20;;;;;;;0.45;0.10;;;29.00;83.00;;;;;;5004010;28;20054;-67
2023/06/15 11:52:46;;;;;;;0.10;0.03;;;29.20;82.30;;;;;;5014272;28;20042;-67
2023/06/15 11:55:14;;;;;;;0.47;0.35;;;29.10;83.50;;;;;;5014073;28;20486;-67
2023/06/15 11:57:44;;;;;;;0.00;0.00;;;29.30;83.10;;;;;;5002026;28;20034;-67
2023/06/15 12:00:12;;;;;;;0.00;0.00;;;29.30;82.00;;;;;;5004259;28;20125;-67
2023/06/15 12:02:39;;;;;;;0.00;0.00;;;29.30;83.30;;;;;;5008086;28;20444;-67
2023/06/15 12:05:05;;;;;;;0.20;0.10;;;29.50;81.60;;;;;;5013281;28;20084;-67
2023/06/15 12:07:32;;;;;;;0.30;0.20;;;28.80;80.70;;;;;;5004511;28;20080;-67
2023/06/15 12:09:59;;;;;;;0.25;0.17;;;28.80;81.40;;;;;;5006322;28;20046;-67
2023/06/15 12:12:32;;;;;;;0.10;0.10;;;28.40;81.60;;;;;;5013793;28;20516;-67
2023/06/15 12:15:03;;;;;;;0.00;0.00;;;28.70;83.20;;;;;;5001170;28;20643;-67
2023/06/15 12:17:33;;;;;;;0.08;0.08;;;29.10;82.70;;;;;;5001405;28;20490;-67
2023/06/15 12:20:08;;;;;;;0.10;0.05;;;29.30;81.40;;;;;;5013644;28;20121;-67
2023/06/15 12:22:35;;;;;;;0.10;0.03;;;29.50;82.30;;;;;;5009680;28;20045;-67
2023/06/15 12:25:01;;;;;;;0.00;0.00;;;29.60;82.20;;;;;;5012190;28;20046;-67
2023/06/15 12:27:29;;;;;;;0.30;0.30;;;29.90;81.80;;;;;;5010442;28;20457;-67
2023/06/15 12:29:55;;;;;;;0.00;0.00;;;30.00;81.40;;;;;;5007180;28;20133;-67
2023/06/15 12:32:24;;;;;;;1.98;1.27;;;30.00;84.10;;;;;;5013014;28;20094;-67
2023/06/15 12:34:51;;;;;;;0.00;0.00;;;30.30;81.60;;;;;;5013591;28;20076;-67
2023/06/15 12:37:17;;;;;;;0.10;0.10;;;29.90;80.50;;;;;;5001901;28;20133;-67
2023/06/15 12:39:45;;;;;;;0.00;0.00;;;30.00;82.20;;;;;;5007598;28;20116;-67
2023/06/15 12:42:11;;;;;;;0.00;0.00;;;30.20;81.70;;;;;;5012177;28;20066;-67
2023/06/15 12:44:36;;;;;;;0.25;0.10;;;30.40;83.00;;;;;;5011535;28;20049;-67
2023/06/15 12:47:02;;;;;;;0.03;0.03;;;30.00;81.20;;;;;;5003903;28;20100;-67
2023/06/15 12:49:28;;;;;;;0.10;0.10;;;29.90;81.70;;;;;;5012626;28;20073;-67